createdAt,value
2022-12-23T00:01:45.633Z,20.86
2022-12-23T04:07:58.663Z,20.27
2022-12-23T04:10:25.049Z,20.33
2022-12-23T04:12:51.427Z,20.31
2022-12-23T04:15:17.829Z,20.28
2022-12-23T04:17:44.212Z,20.30
2022-12-23T04:20:10.632Z,20.28
2022-12-23T04:22:37.017Z,20.28
2022-12-23T04:25:03.430Z,20.29
2022-12-23T04:27:29.821Z,20.27
2022-12-23T04:29:56.214Z,20.26
2022-12-23T04:32:22.613Z,20.26
2022-12-23T04:34:48.998Z,20.27
2022-12-23T04:37:15.380Z,20.28
2022-12-23T04:39:41.771Z,20.25
2022-12-23T04:42:08.181Z,20.27
2022-12-23T04:44:34.617Z,20.24
2022-12-23T04:47:01.020Z,20.27
2022-12-23T04:49:27.429Z,20.28
2022-12-23T04:51:53.822Z,20.28
2022-12-23T04:54:20.193Z,20.28
2022-12-23T04:56:46.667Z,20.28
2022-12-23T04:59:13.048Z,20.25
2022-12-23T05:01:39.526Z,20.28
2022-12-23T05:04:06.095Z,20.25
2022-12-23T05:06:32.471Z,20.26
2022-12-23T05:08:58.855Z,20.29
2022-12-23T05:11:25.238Z,20.26
2022-12-23T05:13:51.654Z,20.22
2022-12-23T05:16:18.148Z,20.25
2022-12-23T05:18:44.546Z,20.24
2022-12-23T05:21:10.946Z,20.22
2022-12-23T05:23:37.322Z,20.26
2022-12-23T05:26:03.707Z,20.27
2022-12-23T05:28:30.099Z,20.27
2022-12-23T05:30:56.477Z,20.26
2022-12-23T05:33:22.889Z,20.29
2022-12-23T05:35:49.311Z,20.29
2022-12-23T05:38:15.688Z,20.27
2022-12-23T05:40:42.072Z,20.26
2022-12-23T05:43:08.548Z,20.28
2022-12-23T05:45:34.985Z,20.28
2022-12-23T05:48:01.404Z,20.31
2022-12-23T05:50:27.779Z,20.32
2022-12-23T05:52:54.180Z,20.33
2022-12-23T05:55:20.571Z,20.31
2022-12-23T05:57:46.968Z,20.31
2022-12-23T06:00:13.979Z,20.30
2022-12-23T06:02:40.512Z,20.27
2022-12-23T06:05:07.039Z,20.29
2022-12-23T06:07:33.436Z,20.31
2022-12-23T06:09:59.821Z,20.32
2022-12-23T06:12:26.189Z,20.31
2022-12-23T06:14:52.583Z,20.31
2022-12-23T06:17:18.962Z,20.29
2022-12-23T06:19:45.337Z,20.28
2022-12-23T06:22:11.714Z,20.29
2022-12-23T06:24:38.082Z,20.29
2022-12-23T06:27:04.447Z,20.35
2022-12-23T06:29:30.830Z,20.33
2022-12-23T06:31:57.353Z,20.32
2022-12-23T06:34:23.763Z,20.33
2022-12-23T06:36:50.131Z,20.33
2022-12-23T06:39:16.508Z,20.34
2022-12-23T06:41:42.901Z,20.35
2022-12-23T06:44:09.313Z,20.35
2022-12-23T06:46:35.705Z,20.34
2022-12-23T06:49:04.917Z,20.34
2022-12-23T06:51:33.967Z,20.36
2022-12-23T06:54:00.362Z,20.35
2022-12-23T06:56:26.737Z,20.37
2022-12-23T06:58:53.123Z,20.34
2022-12-23T07:01:19.575Z,20.38
2022-12-23T07:03:46.002Z,20.40
2022-12-23T07:06:12.406Z,20.37
2022-12-23T07:08:38.784Z,20.44
2022-12-23T07:11:05.160Z,20.46
2022-12-23T07:13:31.545Z,20.42
2022-12-23T07:15:57.934Z,20.43
2022-12-23T07:18:24.311Z,20.42
2022-12-23T07:20:50.703Z,20.43
2022-12-23T07:23:17.185Z,20.42
2022-12-23T07:25:43.570Z,20.41
2022-12-23T07:28:09.955Z,20.43
2022-12-23T07:30:36.370Z,20.43
2022-12-23T07:33:02.793Z,20.46
2022-12-23T07:35:29.180Z,20.50
2022-12-23T07:37:55.552Z,20.46
2022-12-23T07:40:21.940Z,20.49
2022-12-23T07:42:48.318Z,20.43
2022-12-23T07:45:14.709Z,20.55
2022-12-23T07:47:41.088Z,20.50
2022-12-23T07:50:07.474Z,20.52
2022-12-23T07:52:33.883Z,20.54
2022-12-23T07:55:00.261Z,20.50
2022-12-23T07:57:26.622Z,20.53
2022-12-23T07:59:53.000Z,20.48
2022-12-23T08:02:19.645Z,20.52
2022-12-23T08:04:46.615Z,20.60
2022-12-23T08:07:13.154Z,20.59
2022-12-23T08:09:39.616Z,20.65
2022-12-23T08:12:05.985Z,20.56
2022-12-23T08:14:32.361Z,20.63
2022-12-23T08:16:58.794Z,20.71
2022-12-23T08:19:25.179Z,20.64
2022-12-23T08:21:51.567Z,20.64
2022-12-23T08:24:17.944Z,20.66
2022-12-23T08:26:44.309Z,20.66
2022-12-23T08:29:10.681Z,20.77
2022-12-23T08:31:37.066Z,20.64
2022-12-23T08:34:03.439Z,20.59
2022-12-23T08:36:29.825Z,20.64
2022-12-23T08:38:56.196Z,20.64
2022-12-23T08:41:22.590Z,20.64
2022-12-23T08:43:49.007Z,20.62
2022-12-23T08:46:15.447Z,20.67
2022-12-23T08:48:48.621Z,20.72
2022-12-23T08:51:15.705Z,20.70
2022-12-23T08:53:42.082Z,20.74
2022-12-23T08:56:08.469Z,20.77
2022-12-23T08:58:34.892Z,20.67
2022-12-23T09:01:01.311Z,20.69
2022-12-23T09:03:27.830Z,20.68
2022-12-23T09:05:54.310Z,20.69
2022-12-23T09:08:20.705Z,20.67
2022-12-23T09:10:47.079Z,20.67
2022-12-23T09:13:19.938Z,20.63
2022-12-23T09:15:51.542Z,20.62
2022-12-23T09:18:17.974Z,20.62
2022-12-23T09:20:44.376Z,20.60
2022-12-23T09:23:10.751Z,20.64
2022-12-23T09:25:37.146Z,20.58
2022-12-23T09:28:03.541Z,20.58
2022-12-23T09:30:29.936Z,20.66
2022-12-23T09:32:56.310Z,20.62
2022-12-23T09:35:22.721Z,20.60
2022-12-23T09:37:49.110Z,20.65
2022-12-23T09:40:15.502Z,20.64
2022-12-23T09:42:41.897Z,20.60
2022-12-23T09:45:08.366Z,20.69
2022-12-23T09:47:34.752Z,20.62
2022-12-23T09:50:01.132Z,20.66
2022-12-23T09:52:27.557Z,20.64
2022-12-23T09:54:53.942Z,20.61
2022-12-23T09:57:20.317Z,20.64
2022-12-23T09:59:46.701Z,20.58
2022-12-23T10:02:13.125Z,20.64
2022-12-23T10:04:39.624Z,20.64
2022-12-23T10:07:06.008Z,20.65
2022-12-23T10:09:32.394Z,20.62
2022-12-23T10:11:58.775Z,20.66
2022-12-23T10:14:25.148Z,20.64
2022-12-23T10:16:51.519Z,20.66
2022-12-23T10:19:17.931Z,20.69
2022-12-23T10:21:47.586Z,20.66
2022-12-23T10:24:14.419Z,20.61
2022-12-23T10:26:40.812Z,20.62
2022-12-23T10:29:07.179Z,20.60
2022-12-23T10:31:41.490Z,20.70
2022-12-23T10:34:08.002Z,20.65
2022-12-23T10:36:34.435Z,20.65
2022-12-23T10:39:00.863Z,20.64
2022-12-23T10:41:27.251Z,20.66
2022-12-23T10:43:53.615Z,20.67
2022-12-23T10:46:20.046Z,20.70
2022-12-23T10:48:46.456Z,20.65
2022-12-23T10:51:12.822Z,20.70
2022-12-23T10:53:39.221Z,20.72
2022-12-23T10:56:05.631Z,20.74
2022-12-23T10:58:32.021Z,20.68
2022-12-23T11:00:58.431Z,20.71
2022-12-23T11:03:24.974Z,20.74
2022-12-23T11:05:51.514Z,20.73
2022-12-23T11:08:17.933Z,20.69
2022-12-23T11:10:44.343Z,20.69
2022-12-23T11:13:10.826Z,20.75
2022-12-23T11:15:37.221Z,20.70
2022-12-23T11:18:03.646Z,20.68
2022-12-23T11:20:30.089Z,20.64
2022-12-23T11:22:56.524Z,20.68
2022-12-23T11:25:22.934Z,20.66
2022-12-23T11:27:49.340Z,20.71
2022-12-23T11:30:15.752Z,20.69
2022-12-23T11:32:42.138Z,20.70
2022-12-23T11:35:08.633Z,20.73
2022-12-23T11:37:35.062Z,20.70
2022-12-23T11:40:01.474Z,20.68
2022-12-23T11:42:27.931Z,20.71
2022-12-23T11:44:54.334Z,20.66
2022-12-23T11:47:20.756Z,20.67
2022-12-23T11:49:47.165Z,20.71
2022-12-23T11:52:14.482Z,20.68
2022-12-23T11:54:40.865Z,20.71
2022-12-23T11:57:07.804Z,20.66
2022-12-23T11:59:34.255Z,20.66
2022-12-23T12:02:00.737Z,20.73
2022-12-23T12:04:27.215Z,20.71
2022-12-23T12:06:56.597Z,20.92
2022-12-23T12:09:23.279Z,20.75
2022-12-23T12:11:49.669Z,20.82
2022-12-23T12:14:16.066Z,20.80
2022-12-23T12:16:42.520Z,20.79
2022-12-23T12:19:08.929Z,20.78
2022-12-23T12:21:35.350Z,20.73
2022-12-23T12:24:18.391Z,20.77
2022-12-23T12:26:45.822Z,20.74
2022-12-23T12:29:12.198Z,20.85
2022-12-23T12:31:38.609Z,20.88
2022-12-23T12:34:05.000Z,20.88
2022-12-23T12:36:31.420Z,20.86
2022-12-23T12:38:57.879Z,20.87
2022-12-23T12:41:24.296Z,20.93
2022-12-23T12:43:50.674Z,20.96
2022-12-23T12:46:17.219Z,20.87
2022-12-23T12:48:43.643Z,20.88
2022-12-23T12:51:10.077Z,20.86
2022-12-23T12:53:36.512Z,20.80
2022-12-23T12:56:02.907Z,20.86
2022-12-23T12:58:29.356Z,20.81
2022-12-23T13:00:55.774Z,20.88
2022-12-23T13:03:22.213Z,20.92
2022-12-23T13:05:53.732Z,20.89
2022-12-23T13:08:20.893Z,20.86
2022-12-23T13:10:47.268Z,20.81
2022-12-23T13:13:14.445Z,20.78
2022-12-23T13:15:40.913Z,20.76
2022-12-23T13:18:07.740Z,20.80
2022-12-23T13:20:34.143Z,20.89
2022-12-23T13:23:20.835Z,20.83
2022-12-23T13:25:46.916Z,20.82
2022-12-23T13:28:13.291Z,20.78
2022-12-23T13:30:39.712Z,20.81
2022-12-23T13:33:06.173Z,20.78
2022-12-23T13:35:32.575Z,20.86
2022-12-23T13:37:58.977Z,20.83
2022-12-23T13:40:25.353Z,20.86
2022-12-23T13:42:51.738Z,20.81
2022-12-23T13:45:18.187Z,20.83
2022-12-23T13:47:44.590Z,20.93
2022-12-23T13:50:10.977Z,20.81
2022-12-23T13:52:37.370Z,20.81
2022-12-23T13:55:03.765Z,20.88
2022-12-23T13:57:30.177Z,20.83
2022-12-23T14:00:03.006Z,20.90
2022-12-23T14:02:31.660Z,20.81
2022-12-23T14:04:58.110Z,20.84
2022-12-23T14:07:24.520Z,20.83
2022-12-23T14:09:50.916Z,20.85
2022-12-23T14:12:17.317Z,20.87
2022-12-23T14:14:43.711Z,20.86
2022-12-23T14:17:10.091Z,20.81
2022-12-23T14:19:36.498Z,20.78
2022-12-23T14:22:02.891Z,20.90
2022-12-23T14:24:29.292Z,20.79
2022-12-23T14:26:55.680Z,20.89
2022-12-23T14:29:22.086Z,20.90
2022-12-23T14:31:48.567Z,20.87
2022-12-23T14:34:15.005Z,20.88
2022-12-23T14:36:41.482Z,20.86
2022-12-23T14:39:07.944Z,20.87
2022-12-23T14:41:34.330Z,20.90
2022-12-23T14:44:00.710Z,20.82
2022-12-23T14:46:27.180Z,20.80
2022-12-23T14:49:09.901Z,20.81
2022-12-23T14:51:40.041Z,20.90
2022-12-23T14:54:06.446Z,20.88
2022-12-23T14:56:32.843Z,20.86
2022-12-23T14:58:59.255Z,20.86
2022-12-23T15:01:25.663Z,20.90
2022-12-23T15:03:57.554Z,20.87
2022-12-23T15:06:27.269Z,20.87
2022-12-23T15:08:53.671Z,20.84
2022-12-23T15:11:20.079Z,20.83
2022-12-23T15:13:46.483Z,20.82
2022-12-23T15:16:12.975Z,20.86
2022-12-23T15:18:39.385Z,20.87
2022-12-23T15:21:05.873Z,20.86
2022-12-23T15:23:32.261Z,20.88
2022-12-23T15:25:58.667Z,20.90
2022-12-23T15:28:25.068Z,20.91
2022-12-23T15:30:51.489Z,20.90
2022-12-23T15:33:51.893Z,20.83
2022-12-23T15:36:05.370Z,20.82
2022-12-23T15:38:31.777Z,20.86
2022-12-23T15:40:58.151Z,20.85
2022-12-23T15:43:24.521Z,20.87
2022-12-23T15:45:50.923Z,20.84
2022-12-23T15:48:17.318Z,20.85
2022-12-23T15:50:43.722Z,20.82
2022-12-23T15:53:10.120Z,20.82
2022-12-23T15:55:36.518Z,20.86
2022-12-23T15:58:02.970Z,20.89
2022-12-23T16:00:29.361Z,20.78
2022-12-23T16:03:01.019Z,20.78
2022-12-23T16:05:28.407Z,20.80
2022-12-23T16:07:54.806Z,20.84
2022-12-23T16:10:21.227Z,20.77
2022-12-23T16:12:47.621Z,20.87
2022-12-23T16:15:14.015Z,20.81
2022-12-23T16:17:40.421Z,20.86
2022-12-23T16:20:06.798Z,20.92
2022-12-23T16:22:33.173Z,20.91
2022-12-23T16:24:59.548Z,20.88
2022-12-23T16:27:25.935Z,20.85
2022-12-23T16:29:52.337Z,20.90
2022-12-23T16:32:19.209Z,20.83
2022-12-23T16:34:45.691Z,20.89
2022-12-23T16:37:12.097Z,20.88
2022-12-23T16:39:38.491Z,20.92
2022-12-23T16:42:04.883Z,20.95
2022-12-23T16:44:31.283Z,20.96
2022-12-23T16:46:57.680Z,20.96
2022-12-23T16:49:29.519Z,20.97
2022-12-23T16:51:57.728Z,21.00
2022-12-23T16:54:24.092Z,21.00
2022-12-23T16:56:50.466Z,20.95
2022-12-23T16:59:16.876Z,21.04
2022-12-23T17:01:43.407Z,20.98
2022-12-23T17:04:09.901Z,20.96
2022-12-23T17:06:36.281Z,20.96
2022-12-23T17:09:02.685Z,21.04
2022-12-23T17:11:29.084Z,21.15
2022-12-23T17:13:59.730Z,21.05
2022-12-23T17:16:30.477Z,20.99
2022-12-23T17:18:56.900Z,20.92
2022-12-23T17:21:23.290Z,20.92
2022-12-23T17:23:49.690Z,20.93
2022-12-23T17:26:16.069Z,20.92
2022-12-23T17:28:42.450Z,20.94
2022-12-23T17:31:14.392Z,20.84
2022-12-23T17:33:41.852Z,20.87
2022-12-23T17:36:08.296Z,20.85
2022-12-23T17:38:34.733Z,20.86
2022-12-23T17:41:01.114Z,20.97
2022-12-23T17:43:27.520Z,20.93
2022-12-23T17:45:53.963Z,20.94
2022-12-23T17:48:24.163Z,20.93
2022-12-23T17:50:53.036Z,20.93
2022-12-23T17:53:19.470Z,20.95
2022-12-23T17:55:45.884Z,21.04
2022-12-23T17:58:12.298Z,20.91
2022-12-23T18:00:38.706Z,20.94
2022-12-23T18:03:05.104Z,21.02
2022-12-23T18:05:31.523Z,21.09
2022-12-23T18:07:57.924Z,21.03
2022-12-23T18:10:24.322Z,21.03
2022-12-23T18:12:50.725Z,20.92
2022-12-23T18:15:17.110Z,20.97
2022-12-23T18:17:43.514Z,20.95
2022-12-23T18:20:09.920Z,20.99
2022-12-23T18:22:36.337Z,21.04
2022-12-23T18:25:02.781Z,21.10
2022-12-23T18:27:29.156Z,21.29
2022-12-23T18:29:55.656Z,21.25
2022-12-23T18:32:22.050Z,21.25
2022-12-23T18:34:48.429Z,21.29
2022-12-23T18:37:14.835Z,21.29
2022-12-23T18:39:41.313Z,21.29
2022-12-23T18:42:08.173Z,21.39
2022-12-23T18:44:34.567Z,21.40
2022-12-23T18:47:01.048Z,21.48
2022-12-23T18:49:27.484Z,21.61
2022-12-23T18:51:53.886Z,21.53
2022-12-23T18:54:20.273Z,21.49
2022-12-23T18:56:46.672Z,21.32
2022-12-23T18:59:13.068Z,21.29
2022-12-23T19:01:39.502Z,21.24
2022-12-23T19:04:05.934Z,21.29
2022-12-23T19:06:32.331Z,21.17
2022-12-23T19:08:58.817Z,21.22
2022-12-23T19:11:25.197Z,21.19
2022-12-23T19:13:51.588Z,21.14
2022-12-23T19:16:18.052Z,21.11
2022-12-23T19:18:44.537Z,21.11
2022-12-23T19:21:10.931Z,21.12
2022-12-23T19:23:37.341Z,21.13
2022-12-23T19:26:03.758Z,21.09
2022-12-23T19:28:30.163Z,21.10
2022-12-23T19:30:56.595Z,21.10
2022-12-23T19:33:23.004Z,21.13
2022-12-23T19:35:49.497Z,21.12
2022-12-23T19:38:15.913Z,21.09
2022-12-23T19:40:42.305Z,21.07
2022-12-23T19:43:08.706Z,21.11
2022-12-23T19:45:35.101Z,21.07
2022-12-23T19:48:01.503Z,21.06
2022-12-23T19:50:27.919Z,21.07
2022-12-23T19:52:54.318Z,21.06
2022-12-23T19:55:20.767Z,21.12
2022-12-23T19:57:47.169Z,21.12
2022-12-23T20:00:13.578Z,21.11
2022-12-23T20:02:40.017Z,21.23
2022-12-23T20:05:06.424Z,21.12
2022-12-23T20:07:32.818Z,21.20
2022-12-23T20:09:59.227Z,21.15
2022-12-23T20:12:25.638Z,21.22
2022-12-23T20:14:52.039Z,21.15
2022-12-23T20:17:18.433Z,21.20
2022-12-23T20:19:46.388Z,21.21
2022-12-23T20:22:12.987Z,21.20
2022-12-23T20:24:39.405Z,21.21
2022-12-23T20:27:10.945Z,21.10
2022-12-23T20:29:38.428Z,21.15
2022-12-23T20:32:04.851Z,21.14
2022-12-23T20:34:36.724Z,21.12
2022-12-23T20:37:05.873Z,21.13
2022-12-23T20:39:32.301Z,21.12
2022-12-23T20:41:58.694Z,21.14
2022-12-23T20:44:34.452Z,21.11
2022-12-23T20:47:01.923Z,21.09
2022-12-23T20:49:28.420Z,21.11
2022-12-23T20:51:54.853Z,21.08
2022-12-23T20:54:23.809Z,21.06
2022-12-23T20:56:54.468Z,21.08
2022-12-23T20:59:20.865Z,21.07
2022-12-23T21:01:47.293Z,21.04
2022-12-23T21:04:13.697Z,21.06
2022-12-23T21:06:40.117Z,21.07
2022-12-23T21:09:06.506Z,21.06
2022-12-23T21:11:32.890Z,21.10
2022-12-23T21:14:05.631Z,21.07
2022-12-23T21:16:33.062Z,21.07
2022-12-23T21:18:59.474Z,21.07
2022-12-23T21:21:25.846Z,21.05
2022-12-23T21:23:52.243Z,21.02
2022-12-23T21:26:18.648Z,21.01
2022-12-23T21:28:45.070Z,21.02
2022-12-23T21:31:11.539Z,21.00
2022-12-23T21:33:37.966Z,20.99
2022-12-23T21:36:04.405Z,21.00
2022-12-23T21:38:30.794Z,21.02
2022-12-23T21:40:57.210Z,21.01
2022-12-23T21:43:23.612Z,20.99
2022-12-23T21:45:50.006Z,21.00
2022-12-23T21:48:16.398Z,20.96
2022-12-23T21:50:42.807Z,20.98
2022-12-23T21:53:09.200Z,21.00
2022-12-23T21:55:35.581Z,21.00
2022-12-23T21:58:01.990Z,21.03
2022-12-23T22:00:28.378Z,21.01
2022-12-23T22:02:54.785Z,20.98
2022-12-23T22:05:21.164Z,20.99
2022-12-23T22:07:47.541Z,20.98
2022-12-23T22:10:13.925Z,21.00
2022-12-23T22:12:40.321Z,20.97
2022-12-23T22:15:11.444Z,21.00
2022-12-23T22:17:38.324Z,21.00
2022-12-23T22:20:04.758Z,21.03
2022-12-23T22:22:31.141Z,20.95
2022-12-23T22:24:57.525Z,20.96
2022-12-23T22:27:23.968Z,20.95
2022-12-23T22:29:50.365Z,21.02
2022-12-23T22:32:16.757Z,20.99
2022-12-23T22:34:43.147Z,20.98
2022-12-23T22:37:09.558Z,20.97
2022-12-23T22:39:35.939Z,21.01
2022-12-23T22:42:02.369Z,20.99
2022-12-23T22:44:28.770Z,20.97
2022-12-23T22:46:55.291Z,20.94
2022-12-23T22:49:21.728Z,20.98
2022-12-23T22:51:48.123Z,20.96
2022-12-23T22:54:14.522Z,20.96
2022-12-23T22:56:40.914Z,20.96
2022-12-23T22:59:07.322Z,20.99
2022-12-23T23:01:33.742Z,20.97
2022-12-23T23:04:00.182Z,20.93
2022-12-23T23:06:26.648Z,20.95
2022-12-23T23:08:53.061Z,20.95
2022-12-23T23:11:19.478Z,20.97
2022-12-23T23:13:45.885Z,20.93
2022-12-23T23:16:12.309Z,21.00
2022-12-23T23:18:38.720Z,21.00
2022-12-23T23:21:05.129Z,21.11
2022-12-23T23:23:31.541Z,21.14
2022-12-23T23:25:57.940Z,21.05
2022-12-23T23:28:24.390Z,21.02
2022-12-23T23:31:09.666Z,21.03
2022-12-23T23:33:36.356Z,21.10
2022-12-23T23:36:02.772Z,21.11
2022-12-23T23:38:29.194Z,21.12
2022-12-23T23:40:55.594Z,21.12
2022-12-23T23:43:22.007Z,21.15
2022-12-23T23:45:48.425Z,21.13
2022-12-23T23:48:14.806Z,21.17
2022-12-23T23:50:41.199Z,21.15
2022-12-23T23:53:07.586Z,21.11
2022-12-23T23:55:33.992Z,21.13
2022-12-23T23:58:00.388Z,21.14
